Terminal Aerodrome Forecast
Issued by NWS Bismarck, ND

Home | Current Version | Previous Version | Text Only | Print | Product List | Glossary On
Versions: 1 2 3 4 5 6 7 8 9 10 11 12 13 14 15 16 17
807
FTUS43 KBIS 292356 AAB
TAFBIS
TAF AMD
KBIS 292356Z 3000/3024 18009KT P6SM BKN070
     FM300200 16007KT P6SM BKN090
     FM300400 16007KT P6SM FEW100
     FM301100 15007KT P6SM BKN150
     FM301800 16012G20KT P6SM BKN120=

USA.gov is the U.S. government's official web portal to all federal, state and local government web resources and services.